RYR425M EHEH-LERS
Flight info
| Callsign | RYR425M |
|---|---|
| Flight time | 1h 57m |
| Altitude | 37000 |
| Route | WOODY N872 MEDIL DCT KOVIN DCT DUCRA UM728 RESMI UN857 DISAK DCT DIRMO DCT VALKU DCT ATSUP DCT MINSO DCT DEGOL DCT PPG DCT ALBER P84 GIR |
| Aircraft | B738/M-SDE3FGILRWY/SB1 |
Departure
| Time | 2026-05-04 13:46 |
|---|---|
| Airport | Eindhoven Airport (EHEH) |
Arrival
| Time | 2026-05-04 15:43 |
|---|---|
| Airport | Reus Airport (LERS) |
| Time | Latitude | Longitude | Altitude | Speed | Heading |
|---|---|---|---|---|---|
| 2026-05-04 13:15 | 51.45823 | 5.39012 | 74 ft | 0 kts | 125° |
| 2026-05-04 13:15 | 51.45821 | 5.39017 | 74 ft | 0 kts | 125° |
| 2026-05-04 13:39 | 51.45830 | 5.38996 | 74 ft | 4 kts | 125° |
| 2026-05-04 13:39 | 51.45845 | 5.38961 | 59 ft | 4 kts | 125° |
| 2026-05-04 13:39 | 51.45857 | 5.38931 | 74 ft | 4 kts | 101° |
| 2026-05-04 13:39 | 51.45852 | 5.38899 | 64 ft | 4 kts | 35° |
| 2026-05-04 13:40 | 51.45835 | 5.38882 | 74 ft | 0 kts | 35° |
| 2026-05-04 13:43 | 51.45848 | 5.38896 | 66 ft | 5 kts | 35° |
| 2026-05-04 13:43 | 51.45888 | 5.38942 | 65 ft | 9 kts | 35° |
| 2026-05-04 13:43 | 51.45946 | 5.38990 | 74 ft | 10 kts | 2° |
| 2026-05-04 13:43 | 51.45996 | 5.38929 | 62 ft | 9 kts | 304° |
| 2026-05-04 13:44 | 51.46032 | 5.38845 | 74 ft | 9 kts | 306° |
| 2026-05-04 13:44 | 51.46068 | 5.38765 | 70 ft | 9 kts | 306° |
| 2026-05-04 13:44 | 51.46093 | 5.38681 | 74 ft | 9 kts | 259° |
| 2026-05-04 13:44 | 51.46058 | 5.38622 | 70 ft | 4 kts | 215° |
| 2026-05-04 13:45 | 51.46053 | 5.38616 | 74 ft | 4 kts | 215° |
| 2026-05-04 13:45 | 51.45968 | 5.38522 | 75 ft | 39 kts | 215° |
| 2026-05-04 13:45 | 51.45544 | 5.38045 | 74 ft | 108 kts | 215° |
| 2026-05-04 13:45 | 51.44766 | 5.37164 | 90 ft | 162 kts | 217° |
| 2026-05-04 13:46 | 51.43832 | 5.36127 | 734 ft | 167 kts | 217° |
| 2026-05-04 13:46 | 51.42953 | 5.34895 | 1442 ft | 173 kts | 223° |
| 2026-05-04 13:46 | 51.41973 | 5.33509 | 1837 ft | 203 kts | 222° |
| 2026-05-04 13:46 | 51.40884 | 5.31876 | 2174 ft | 223 kts | 229° |
| 2026-05-04 13:47 | 51.40235 | 5.29641 | 2782 ft | 228 kts | 264° |
| 2026-05-04 13:47 | 51.40519 | 5.27172 | 3675 ft | 230 kts | 297° |
| 2026-05-04 13:47 | 51.41553 | 5.25267 | 4645 ft | 237 kts | 330° |
| 2026-05-04 13:47 | 51.43059 | 5.24231 | 5539 ft | 236 kts | 339° |
| 2026-05-04 13:48 | 51.44600 | 5.23266 | 6322 ft | 242 kts | 334° |
| 2026-05-04 13:48 | 51.46136 | 5.22121 | 7199 ft | 244 kts | 336° |
| 2026-05-04 13:48 | 51.47699 | 5.21041 | 8059 ft | 246 kts | 336° |
| 2026-05-04 13:48 | 51.49309 | 5.19986 | 8795 ft | 254 kts | 330° |
| 2026-05-04 13:49 | 51.50495 | 5.17984 | 9413 ft | 255 kts | 292° |
| 2026-05-04 13:49 | 51.51074 | 5.15198 | 9588 ft | 273 kts | 284° |
| 2026-05-04 13:49 | 51.51585 | 5.12176 | 9910 ft | 286 kts | 284° |
| 2026-05-04 13:49 | 51.52087 | 5.09033 | 10232 ft | 300 kts | 283° |
| 2026-05-04 13:50 | 51.52623 | 5.05681 | 10372 ft | 319 kts | 284° |
| 2026-05-04 13:50 | 51.53204 | 5.02132 | 10507 ft | 337 kts | 284° |
| 2026-05-04 13:50 | 51.53825 | 4.98402 | 10726 ft | 353 kts | 284° |
| 2026-05-04 13:50 | 51.54473 | 4.94559 | 11204 ft | 360 kts | 284° |
| 2026-05-04 13:51 | 51.55132 | 4.90666 | 11917 ft | 362 kts | 284° |
| 2026-05-04 13:51 | 51.55762 | 4.86742 | 12652 ft | 364 kts | 279° |
| 2026-05-04 13:51 | 51.55753 | 4.82682 | 13322 ft | 366 kts | 258° |
| 2026-05-04 13:51 | 51.55208 | 4.78679 | 14068 ft | 368 kts | 257° |
| 2026-05-04 13:52 | 51.54252 | 4.71971 | 15101 ft | 376 kts | 257° |
| 2026-05-04 13:52 | 51.53674 | 4.67861 | 15804 ft | 377 kts | 257° |
| 2026-05-04 13:52 | 51.53103 | 4.63735 | 16481 ft | 380 kts | 257° |
| 2026-05-04 13:53 | 51.52530 | 4.59552 | 17118 ft | 385 kts | 257° |
| 2026-05-04 13:53 | 51.51953 | 4.55335 | 17748 ft | 390 kts | 257° |
| 2026-05-04 13:53 | 51.51367 | 4.51063 | 18385 ft | 393 kts | 257° |
| 2026-05-04 13:54 | 51.48793 | 4.43479 | 19541 ft | 397 kts | 223° |
| 2026-05-04 13:54 | 51.46513 | 4.40963 | 20013 ft | 402 kts | 206° |
| 2026-05-04 13:54 | 51.41428 | 4.37198 | 21045 ft | 404 kts | 205° |
| 2026-05-04 13:55 | 51.38874 | 4.35296 | 21528 ft | 405 kts | 205° |
| 2026-05-04 13:55 | 51.33746 | 4.31478 | 22491 ft | 408 kts | 205° |
| 2026-05-04 13:55 | 51.31168 | 4.29554 | 22965 ft | 409 kts | 205° |
| 2026-05-04 13:56 | 51.28590 | 4.27621 | 23377 ft | 411 kts | 206° |
| 2026-05-04 13:56 | 51.26010 | 4.25639 | 23727 ft | 412 kts | 206° |
| 2026-05-04 13:56 | 51.20793 | 4.21656 | 24363 ft | 417 kts | 206° |
| 2026-05-04 13:57 | 51.18173 | 4.19671 | 24786 ft | 417 kts | 205° |
| 2026-05-04 13:57 | 51.15527 | 4.17776 | 25160 ft | 418 kts | 201° |
| 2026-05-04 13:58 | 51.07246 | 4.13266 | 26160 ft | 421 kts | 199° |
| 2026-05-04 13:58 | 51.01675 | 4.10288 | 26822 ft | 423 kts | 199° |
| 2026-05-04 13:58 | 50.98889 | 4.08777 | 27142 ft | 424 kts | 199° |
| 2026-05-04 13:59 | 50.96093 | 4.07255 | 27443 ft | 425 kts | 199° |
| 2026-05-04 13:59 | 50.93292 | 4.05729 | 27727 ft | 426 kts | 199° |
| 2026-05-04 13:59 | 50.87666 | 4.02666 | 28298 ft | 428 kts | 200° |
| 2026-05-04 14:00 | 50.84881 | 4.00985 | 28575 ft | 429 kts | 201° |
| 2026-05-04 14:00 | 50.79343 | 3.97383 | 29103 ft | 432 kts | 201° |
| 2026-05-04 14:00 | 50.76563 | 3.95546 | 29465 ft | 431 kts | 201° |
| 2026-05-04 14:01 | 50.73810 | 3.93759 | 30037 ft | 426 kts | 201° |
| 2026-05-04 14:01 | 50.71078 | 3.92007 | 30424 ft | 423 kts | 201° |
| 2026-05-04 14:01 | 50.65623 | 3.88532 | 30987 ft | 422 kts | 201° |
| 2026-05-04 14:02 | 50.62907 | 3.86803 | 31338 ft | 420 kts | 201° |
| 2026-05-04 14:02 | 50.60211 | 3.85088 | 31725 ft | 417 kts | 201° |
| 2026-05-04 14:02 | 50.57531 | 3.83384 | 32098 ft | 415 kts | 201° |
| 2026-05-04 14:02 | 50.54865 | 3.81631 | 32404 ft | 414 kts | 202° |
| 2026-05-04 14:03 | 50.52225 | 3.79825 | 32740 ft | 414 kts | 203° |
| 2026-05-04 14:03 | 50.49598 | 3.78009 | 33189 ft | 411 kts | 203° |
| 2026-05-04 14:03 | 50.46999 | 3.76217 | 33688 ft | 406 kts | 203° |
| 2026-05-04 14:03 | 50.44417 | 3.74446 | 34107 ft | 403 kts | 203° |
| 2026-05-04 14:04 | 50.39239 | 3.70917 | 34404 ft | 409 kts | 203° |
| 2026-05-04 14:04 | 50.36624 | 3.69144 | 34635 ft | 410 kts | 203° |
| 2026-05-04 14:04 | 50.33999 | 3.67365 | 34733 ft | 414 kts | 203° |
| 2026-05-04 14:05 | 50.28724 | 3.63800 | 35131 ft | 415 kts | 203° |
| 2026-05-04 14:05 | 50.26074 | 3.62012 | 35360 ft | 416 kts | 203° |
| 2026-05-04 14:05 | 50.23415 | 3.60219 | 35526 ft | 417 kts | 203° |
| 2026-05-04 14:06 | 50.20742 | 3.58416 | 35707 ft | 418 kts | 203° |
| 2026-05-04 14:06 | 50.18068 | 3.56614 | 35896 ft | 419 kts | 203° |
| 2026-05-04 14:06 | 50.15387 | 3.54808 | 36096 ft | 420 kts | 203° |
| 2026-05-04 14:06 | 50.12704 | 3.53008 | 36294 ft | 420 kts | 203° |
| 2026-05-04 14:07 | 50.10020 | 3.51207 | 36490 ft | 421 kts | 204° |
| 2026-05-04 14:07 | 50.07326 | 3.49404 | 36678 ft | 421 kts | 204° |
| 2026-05-04 14:07 | 50.04631 | 3.47603 | 36883 ft | 422 kts | 204° |
| 2026-05-04 14:08 | 49.99207 | 3.43980 | 36976 ft | 427 kts | 204° |
| 2026-05-04 14:08 | 49.93753 | 3.40347 | 36960 ft | 425 kts | 204° |
| 2026-05-04 14:09 | 49.85680 | 3.34986 | 36964 ft | 418 kts | 204° |
| 2026-05-04 14:10 | 49.77692 | 3.29698 | 36963 ft | 415 kts | 204° |
| 2026-05-04 14:10 | 49.72379 | 3.26191 | 36980 ft | 416 kts | 204° |
| 2026-05-04 14:11 | 49.67033 | 3.22658 | 36974 ft | 421 kts | 203° |
| 2026-05-04 14:11 | 49.58913 | 3.17349 | 36965 ft | 422 kts | 203° |
| 2026-05-04 14:12 | 49.53521 | 3.13814 | 36953 ft | 421 kts | 203° |
| 2026-05-04 14:13 | 49.45690 | 3.07796 | 36975 ft | 420 kts | 213° |
| 2026-05-04 14:13 | 49.40831 | 3.02785 | 36976 ft | 421 kts | 213° |
| 2026-05-04 14:14 | 49.35968 | 2.97792 | 36967 ft | 421 kts | 213° |
| 2026-05-04 14:14 | 49.28635 | 2.90368 | 36960 ft | 421 kts | 213° |
| 2026-05-04 14:15 | 49.18832 | 2.80505 | 36953 ft | 422 kts | 213° |
| 2026-05-04 14:16 | 49.11430 | 2.73092 | 36981 ft | 427 kts | 212° |
| 2026-05-04 14:17 | 49.04002 | 2.65672 | 36957 ft | 426 kts | 213° |
| 2026-05-04 14:18 | 48.96591 | 2.58292 | 36972 ft | 423 kts | 212° |
| 2026-05-04 14:19 | 48.86767 | 2.48553 | 36967 ft | 420 kts | 212° |
| 2026-05-04 14:19 | 48.81878 | 2.43722 | 36964 ft | 419 kts | 212° |
| 2026-05-04 14:20 | 48.76999 | 2.38910 | 36967 ft | 418 kts | 212° |
| 2026-05-04 14:20 | 48.72121 | 2.34108 | 36971 ft | 418 kts | 212° |
| 2026-05-04 14:21 | 48.64782 | 2.26906 | 36980 ft | 421 kts | 212° |
| 2026-05-04 14:21 | 48.59846 | 2.22078 | 36967 ft | 423 kts | 212° |
| 2026-05-04 14:22 | 48.54590 | 2.18406 | 36955 ft | 424 kts | 197° |
| 2026-05-04 14:22 | 48.48814 | 2.16518 | 36951 ft | 426 kts | 192° |
| 2026-05-04 14:23 | 48.40088 | 2.13783 | 36929 ft | 427 kts | 193° |
| 2026-05-04 14:24 | 48.34285 | 2.11919 | 36939 ft | 426 kts | 193° |
| 2026-05-04 14:24 | 48.28446 | 2.10432 | 36933 ft | 427 kts | 184° |
| 2026-05-04 14:25 | 48.22524 | 2.11134 | 36953 ft | 428 kts | 173° |
| 2026-05-04 14:25 | 48.13694 | 2.13122 | 36948 ft | 427 kts | 175° |
| 2026-05-04 14:26 | 48.07797 | 2.13675 | 36951 ft | 424 kts | 180° |
| 2026-05-04 14:26 | 48.01908 | 2.13937 | 36958 ft | 423 kts | 180° |
| 2026-05-04 14:27 | 47.96035 | 2.14224 | 36964 ft | 423 kts | 180° |
| 2026-05-04 14:27 | 47.90157 | 2.14548 | 36965 ft | 422 kts | 180° |
| 2026-05-04 14:28 | 47.84284 | 2.14888 | 36965 ft | 422 kts | 180° |
| 2026-05-04 14:28 | 47.78415 | 2.15229 | 36930 ft | 422 kts | 180° |
| 2026-05-04 14:29 | 47.66705 | 2.15906 | 36917 ft | 423 kts | 180° |
| 2026-05-04 14:30 | 47.60823 | 2.16245 | 36928 ft | 423 kts | 180° |
| 2026-05-04 14:31 | 47.51988 | 2.16753 | 36923 ft | 423 kts | 180° |
| 2026-05-04 14:32 | 47.40200 | 2.17427 | 36919 ft | 424 kts | 180° |
| 2026-05-04 14:32 | 47.34297 | 2.17762 | 36921 ft | 424 kts | 180° |
| 2026-05-04 14:33 | 47.28392 | 2.18100 | 36919 ft | 425 kts | 180° |
| 2026-05-04 14:33 | 47.22492 | 2.18432 | 36928 ft | 424 kts | 180° |
| 2026-05-04 14:34 | 47.16593 | 2.18765 | 36915 ft | 424 kts | 180° |
| 2026-05-04 14:34 | 47.10702 | 2.19170 | 36924 ft | 425 kts | 176° |
| 2026-05-04 14:35 | 47.04947 | 2.21356 | 36934 ft | 432 kts | 162° |
| 2026-05-04 14:35 | 46.99379 | 2.24668 | 36928 ft | 432 kts | 162° |
| 2026-05-04 14:36 | 46.93814 | 2.27984 | 36918 ft | 432 kts | 162° |
| 2026-05-04 14:36 | 46.88242 | 2.31254 | 36925 ft | 431 kts | 162° |
| 2026-05-04 14:37 | 46.82664 | 2.34500 | 36923 ft | 431 kts | 162° |
| 2026-05-04 14:37 | 46.77092 | 2.37729 | 36916 ft | 431 kts | 162° |
| 2026-05-04 14:38 | 46.72468 | 2.40402 | 36912 ft | 430 kts | 162° |
| 2026-05-04 14:38 | 46.66909 | 2.43610 | 36896 ft | 430 kts | 162° |
| 2026-05-04 14:39 | 46.61347 | 2.46812 | 36918 ft | 430 kts | 162° |
| 2026-05-04 14:39 | 46.55781 | 2.50010 | 36922 ft | 430 kts | 162° |
| 2026-05-04 14:40 | 46.47422 | 2.54801 | 36916 ft | 431 kts | 163° |
| 2026-05-04 14:40 | 46.41843 | 2.57990 | 36927 ft | 431 kts | 163° |
| 2026-05-04 14:41 | 46.36252 | 2.61180 | 36923 ft | 432 kts | 163° |
| 2026-05-04 14:42 | 46.25077 | 2.67531 | 36918 ft | 433 kts | 163° |
| 2026-05-04 14:42 | 46.19465 | 2.70710 | 36917 ft | 433 kts | 163° |
| 2026-05-04 14:43 | 46.13862 | 2.73878 | 36931 ft | 432 kts | 163° |
| 2026-05-04 14:43 | 46.08270 | 2.77032 | 36917 ft | 431 kts | 163° |
| 2026-05-04 14:44 | 46.02688 | 2.80177 | 36922 ft | 430 kts | 163° |
| 2026-05-04 14:44 | 45.97110 | 2.83268 | 36923 ft | 429 kts | 164° |
| 2026-05-04 14:45 | 45.91515 | 2.86219 | 36938 ft | 429 kts | 165° |
| 2026-05-04 14:45 | 45.85907 | 2.89170 | 36927 ft | 429 kts | 165° |
| 2026-05-04 14:46 | 45.80316 | 2.92129 | 36928 ft | 428 kts | 165° |
| 2026-05-04 14:46 | 45.74687 | 2.94743 | 36930 ft | 422 kts | 174° |
| 2026-05-04 14:47 | 45.68916 | 2.95260 | 36941 ft | 413 kts | 185° |
| 2026-05-04 14:47 | 45.63165 | 2.95042 | 36925 ft | 414 kts | 185° |
| 2026-05-04 14:48 | 45.57407 | 2.94851 | 36920 ft | 414 kts | 185° |
| 2026-05-04 14:48 | 45.51649 | 2.94683 | 36919 ft | 413 kts | 185° |
| 2026-05-04 14:49 | 45.45904 | 2.94532 | 36923 ft | 413 kts | 185° |
| 2026-05-04 14:49 | 45.40197 | 2.94379 | 36935 ft | 413 kts | 185° |
| 2026-05-04 14:50 | 45.34413 | 2.94221 | 36933 ft | 414 kts | 186° |
| 2026-05-04 14:50 | 45.28694 | 2.94066 | 36939 ft | 414 kts | 185° |
| 2026-05-04 14:51 | 45.22927 | 2.93911 | 36942 ft | 415 kts | 185° |
| 2026-05-04 14:51 | 45.17129 | 2.93756 | 36933 ft | 418 kts | 185° |
| 2026-05-04 14:52 | 45.11304 | 2.93600 | 36931 ft | 419 kts | 185° |
| 2026-05-04 14:52 | 45.05479 | 2.93447 | 36942 ft | 418 kts | 185° |
| 2026-05-04 14:53 | 44.99661 | 2.93294 | 36940 ft | 419 kts | 185° |
| 2026-05-04 14:53 | 44.93835 | 2.93137 | 36939 ft | 419 kts | 185° |
| 2026-05-04 14:54 | 44.88011 | 2.92985 | 36939 ft | 417 kts | 186° |
| 2026-05-04 14:54 | 44.82218 | 2.92776 | 36932 ft | 415 kts | 187° |
| 2026-05-04 14:55 | 44.76453 | 2.92347 | 36954 ft | 414 kts | 188° |
| 2026-05-04 14:55 | 44.70704 | 2.91894 | 36952 ft | 413 kts | 187° |
| 2026-05-04 14:56 | 44.64963 | 2.91457 | 36936 ft | 412 kts | 187° |
| 2026-05-04 14:56 | 44.59219 | 2.90984 | 36954 ft | 413 kts | 188° |
| 2026-05-04 14:57 | 44.53485 | 2.90548 | 36935 ft | 412 kts | 187° |
| 2026-05-04 14:57 | 44.47774 | 2.90174 | 36934 ft | 410 kts | 187° |
| 2026-05-04 14:58 | 44.42094 | 2.89785 | 36941 ft | 408 kts | 187° |
| 2026-05-04 14:58 | 44.36430 | 2.89378 | 36929 ft | 407 kts | 188° |
| 2026-05-04 14:59 | 44.30783 | 2.88967 | 36932 ft | 406 kts | 188° |
| 2026-05-04 15:00 | 44.22313 | 2.88367 | 36928 ft | 406 kts | 187° |
| 2026-05-04 15:00 | 44.16647 | 2.87957 | 36928 ft | 409 kts | 187° |
| 2026-05-04 15:01 | 44.08103 | 2.87377 | 36922 ft | 410 kts | 188° |
| 2026-05-04 15:01 | 44.02394 | 2.86934 | 36915 ft | 413 kts | 188° |
| 2026-05-04 15:02 | 43.96655 | 2.86517 | 36918 ft | 414 kts | 188° |
| 2026-05-04 15:02 | 43.90907 | 2.86109 | 36940 ft | 413 kts | 188° |
| 2026-05-04 15:03 | 43.85158 | 2.85701 | 36929 ft | 413 kts | 188° |
| 2026-05-04 15:03 | 43.79413 | 2.85293 | 36910 ft | 413 kts | 188° |
| 2026-05-04 15:04 | 43.73685 | 2.85176 | 36933 ft | 415 kts | 185° |
| 2026-05-04 15:04 | 43.67913 | 2.85299 | 36934 ft | 414 kts | 185° |
| 2026-05-04 15:05 | 43.62161 | 2.85421 | 36935 ft | 413 kts | 185° |
| 2026-05-04 15:05 | 43.56415 | 2.85523 | 36910 ft | 412 kts | 185° |
| 2026-05-04 15:06 | 43.50690 | 2.85608 | 36932 ft | 411 kts | 185° |
| 2026-05-04 15:07 | 43.42124 | 2.85735 | 36937 ft | 410 kts | 185° |
| 2026-05-04 15:07 | 43.36399 | 2.85810 | 36931 ft | 412 kts | 185° |
| 2026-05-04 15:08 | 43.30638 | 2.85892 | 36923 ft | 414 kts | 185° |
| 2026-05-04 15:08 | 43.24871 | 2.85979 | 36927 ft | 414 kts | 185° |
| 2026-05-04 15:09 | 43.19107 | 2.86064 | 36909 ft | 414 kts | 185° |
| 2026-05-04 15:09 | 43.13339 | 2.86147 | 36908 ft | 415 kts | 185° |
| 2026-05-04 15:10 | 43.04694 | 2.86272 | 36917 ft | 415 kts | 185° |
| 2026-05-04 15:11 | 42.96034 | 2.86398 | 36918 ft | 415 kts | 186° |
| 2026-05-04 15:11 | 42.90256 | 2.86480 | 36916 ft | 415 kts | 186° |
| 2026-05-04 15:12 | 42.84484 | 2.86564 | 36912 ft | 415 kts | 186° |
| 2026-05-04 15:12 | 42.78708 | 2.86648 | 36909 ft | 415 kts | 186° |
| 2026-05-04 15:13 | 42.72957 | 2.86535 | 36914 ft | 410 kts | 190° |
| 2026-05-04 15:13 | 42.67275 | 2.85842 | 36906 ft | 410 kts | 191° |
| 2026-05-04 15:14 | 42.61595 | 2.85131 | 36768 ft | 412 kts | 191° |
| 2026-05-04 15:14 | 42.58723 | 2.84784 | 36301 ft | 413 kts | 191° |
| 2026-05-04 15:14 | 42.55869 | 2.84447 | 35714 ft | 412 kts | 190° |
| 2026-05-04 15:14 | 42.53018 | 2.84143 | 35094 ft | 411 kts | 190° |
| 2026-05-04 15:15 | 42.50173 | 2.83798 | 34483 ft | 411 kts | 190° |
| 2026-05-04 15:15 | 42.47321 | 2.83482 | 33887 ft | 410 kts | 190° |
| 2026-05-04 15:15 | 42.44484 | 2.83142 | 33381 ft | 407 kts | 189° |
| 2026-05-04 15:16 | 42.38933 | 2.82481 | 32428 ft | 400 kts | 189° |
| 2026-05-04 15:16 | 42.36180 | 2.82141 | 31952 ft | 396 kts | 190° |
| 2026-05-04 15:16 | 42.30763 | 2.81469 | 31090 ft | 387 kts | 191° |
| 2026-05-04 15:17 | 42.28080 | 2.81238 | 30677 ft | 384 kts | 188° |
| 2026-05-04 15:17 | 42.22806 | 2.80608 | 29791 ft | 378 kts | 189° |
| 2026-05-04 15:17 | 42.20201 | 2.80305 | 29299 ft | 375 kts | 189° |
| 2026-05-04 15:18 | 42.17619 | 2.80009 | 28855 ft | 371 kts | 189° |
| 2026-05-04 15:18 | 42.15057 | 2.79717 | 28384 ft | 367 kts | 190° |
| 2026-05-04 15:18 | 42.12527 | 2.79412 | 27963 ft | 363 kts | 189° |
| 2026-05-04 15:19 | 42.07541 | 2.78846 | 27096 ft | 357 kts | 189° |
| 2026-05-04 15:19 | 42.05067 | 2.78568 | 26682 ft | 356 kts | 189° |
| 2026-05-04 15:19 | 42.00163 | 2.77978 | 25833 ft | 351 kts | 193° |
| 2026-05-04 15:20 | 41.97901 | 2.76913 | 25414 ft | 343 kts | 212° |
| 2026-05-04 15:20 | 41.96031 | 2.74977 | 25025 ft | 340 kts | 226° |
| 2026-05-04 15:20 | 41.94630 | 2.72438 | 24683 ft | 338 kts | 240° |
| 2026-05-04 15:20 | 41.93710 | 2.69541 | 24365 ft | 341 kts | 252° |
| 2026-05-04 15:21 | 41.93392 | 2.66328 | 24062 ft | 355 kts | 265° |
| 2026-05-04 15:21 | 41.93433 | 2.62977 | 23680 ft | 361 kts | 268° |
| 2026-05-04 15:21 | 41.93700 | 2.56263 | 22921 ft | 359 kts | 269° |
| 2026-05-04 15:22 | 41.93839 | 2.52928 | 22554 ft | 356 kts | 269° |
| 2026-05-04 15:22 | 41.93968 | 2.49624 | 22208 ft | 353 kts | 268° |
| 2026-05-04 15:22 | 41.93901 | 2.43094 | 21206 ft | 352 kts | 255° |
| 2026-05-04 15:23 | 41.93266 | 2.39940 | 20778 ft | 349 kts | 250° |
| 2026-05-04 15:23 | 41.92547 | 2.36839 | 20398 ft | 346 kts | 250° |
| 2026-05-04 15:23 | 41.91824 | 2.33780 | 20044 ft | 342 kts | 250° |
| 2026-05-04 15:23 | 41.91111 | 2.30752 | 19691 ft | 338 kts | 250° |
| 2026-05-04 15:24 | 41.89712 | 2.24768 | 19024 ft | 333 kts | 250° |
| 2026-05-04 15:24 | 41.88572 | 2.19858 | 18457 ft | 329 kts | 250° |
| 2026-05-04 15:25 | 41.87895 | 2.16934 | 18120 ft | 328 kts | 250° |
| 2026-05-04 15:25 | 41.87218 | 2.14008 | 17743 ft | 327 kts | 250° |
| 2026-05-04 15:25 | 41.86542 | 2.11101 | 17385 ft | 325 kts | 250° |
| 2026-05-04 15:26 | 41.85198 | 2.05304 | 16722 ft | 327 kts | 251° |
| 2026-05-04 15:26 | 41.84531 | 2.02383 | 16382 ft | 327 kts | 250° |
| 2026-05-04 15:26 | 41.83178 | 1.96598 | 15712 ft | 325 kts | 250° |
| 2026-05-04 15:27 | 41.82500 | 1.93715 | 15374 ft | 326 kts | 250° |
| 2026-05-04 15:27 | 41.81139 | 1.87912 | 14736 ft | 327 kts | 250° |
| 2026-05-04 15:28 | 41.79775 | 1.82080 | 14049 ft | 327 kts | 250° |
| 2026-05-04 15:28 | 41.79092 | 1.79188 | 13708 ft | 324 kts | 250° |
| 2026-05-04 15:28 | 41.77750 | 1.73485 | 12988 ft | 317 kts | 250° |
| 2026-05-04 15:29 | 41.77092 | 1.70686 | 12655 ft | 314 kts | 249° |
| 2026-05-04 15:30 | 41.74491 | 1.59709 | 11390 ft | 300 kts | 251° |
| 2026-05-04 15:30 | 41.70623 | 1.54264 | 10571 ft | 266 kts | 199° |
| 2026-05-04 15:31 | 41.67046 | 1.53285 | 10145 ft | 262 kts | 192° |
| 2026-05-04 15:31 | 41.65259 | 1.52851 | 9903 ft | 260 kts | 192° |
| 2026-05-04 15:32 | 41.59861 | 1.51491 | 9217 ft | 270 kts | 191° |
| 2026-05-04 15:32 | 41.56220 | 1.50575 | 8758 ft | 262 kts | 192° |
| 2026-05-04 15:33 | 41.52612 | 1.50568 | 8294 ft | 259 kts | 173° |
| 2026-05-04 15:34 | 41.47385 | 1.51735 | 7633 ft | 254 kts | 173° |
| 2026-05-04 15:34 | 41.45631 | 1.52164 | 7428 ft | 258 kts | 172° |
| 2026-05-04 15:34 | 41.42084 | 1.53008 | 6972 ft | 258 kts | 173° |
| 2026-05-04 15:35 | 41.38564 | 1.53806 | 6510 ft | 252 kts | 173° |
| 2026-05-04 15:35 | 41.36862 | 1.54190 | 6280 ft | 244 kts | 173° |
| 2026-05-04 15:35 | 41.35219 | 1.54556 | 6050 ft | 235 kts | 175° |
| 2026-05-04 15:36 | 41.32166 | 1.53449 | 5654 ft | 232 kts | 206° |
| 2026-05-04 15:36 | 41.30719 | 1.52519 | 5404 ft | 230 kts | 206° |
| 2026-05-04 15:36 | 41.29297 | 1.51608 | 5185 ft | 225 kts | 206° |
| 2026-05-04 15:37 | 41.27889 | 1.50711 | 4962 ft | 225 kts | 206° |
| 2026-05-04 15:37 | 41.26472 | 1.49814 | 4733 ft | 226 kts | 206° |
| 2026-05-04 15:37 | 41.25059 | 1.48924 | 4501 ft | 227 kts | 206° |
| 2026-05-04 15:37 | 41.23791 | 1.47746 | 4255 ft | 220 kts | 232° |
| 2026-05-04 15:38 | 41.23243 | 1.45928 | 4115 ft | 207 kts | 256° |
| 2026-05-04 15:38 | 41.22786 | 1.44183 | 3994 ft | 194 kts | 239° |
| 2026-05-04 15:38 | 41.22182 | 1.42616 | 3969 ft | 191 kts | 251° |
| 2026-05-04 15:38 | 41.21924 | 1.40842 | 3774 ft | 202 kts | 258° |
| 2026-05-04 15:39 | 41.21392 | 1.39165 | 3559 ft | 195 kts | 235° |
| 2026-05-04 15:39 | 41.20760 | 1.37602 | 3300 ft | 190 kts | 247° |
| 2026-05-04 15:39 | 41.19885 | 1.34421 | 2805 ft | 176 kts | 247° |
| 2026-05-04 15:40 | 41.19459 | 1.32947 | 2581 ft | 172 kts | 246° |
| 2026-05-04 15:40 | 41.19027 | 1.31466 | 2358 ft | 172 kts | 246° |
| 2026-05-04 15:40 | 41.18596 | 1.29989 | 2115 ft | 172 kts | 248° |
| 2026-05-04 15:40 | 41.18177 | 1.28547 | 1900 ft | 162 kts | 246° |
| 2026-05-04 15:41 | 41.17782 | 1.27185 | 1738 ft | 158 kts | 246° |
| 2026-05-04 15:41 | 41.17383 | 1.25817 | 1486 ft | 155 kts | 245° |
| 2026-05-04 15:41 | 41.17001 | 1.24514 | 1272 ft | 148 kts | 246° |
| 2026-05-04 15:41 | 41.16636 | 1.23237 | 1072 ft | 148 kts | 247° |
| 2026-05-04 15:42 | 41.16261 | 1.21956 | 878 ft | 150 kts | 246° |
| 2026-05-04 15:42 | 41.15886 | 1.20668 | 680 ft | 150 kts | 248° |
| 2026-05-04 15:42 | 41.15513 | 1.19369 | 448 ft | 152 kts | 248° |
| 2026-05-04 15:42 | 41.15135 | 1.18067 | 253 ft | 149 kts | 250° |
| 2026-05-04 15:43 | 41.14802 | 1.16930 | 245 ft | 107 kts | 248° |
| 2026-05-04 15:43 | 41.14608 | 1.16267 | 245 ft | 50 kts | 249° |
| 2026-05-04 15:43 | 41.14531 | 1.16006 | 245 ft | 13 kts | 249° |
| 2026-05-04 15:43 | 41.14556 | 1.15906 | 245 ft | 13 kts | 333° |
| 2026-05-04 15:44 | 41.14612 | 1.15877 | 245 ft | 0 kts | 339° |
| 2026-05-04 15:45 | 41.14613 | 1.15877 | 245 ft | 1 kts | 339° |
| 2026-05-04 15:45 | 41.14642 | 1.15857 | 245 ft | 9 kts | 317° |
| 2026-05-04 15:46 | 41.14637 | 1.15762 | 245 ft | 13 kts | 248° |
| 2026-05-04 15:46 | 41.14607 | 1.15657 | 245 ft | 12 kts | 249° |
| 2026-05-04 15:46 | 41.14629 | 1.15579 | 245 ft | 10 kts | 336° |
| 2026-05-04 15:46 | 41.14662 | 1.15562 | 245 ft | 2 kts | 339° |
| 2026-05-04 15:47 | 41.14664 | 1.15561 | 245 ft | 0 kts | 339° |